createdAt,value
2022-12-29T00:02:21.710Z,1.30
2022-12-29T00:04:50.413Z,1.52
2022-12-29T00:07:16.799Z,1.50
2022-12-29T00:09:44.628Z,1.35
2022-12-29T00:12:11.017Z,1.33
2022-12-29T00:14:56.047Z,1.58
2022-12-29T00:17:22.563Z,1.40
2022-12-29T00:20:07.706Z,1.23
2022-12-29T00:22:52.961Z,1.23
2022-12-29T00:25:38.002Z,1.50
2022-12-29T00:28:24.112Z,1.38
2022-12-29T00:31:09.209Z,1.33
2022-12-29T00:33:54.032Z,1.30
2022-12-29T00:36:34.962Z,1.50
2022-12-29T00:39:28.769Z,1.33
2022-12-29T00:42:13.963Z,1.48
2022-12-29T00:44:40.473Z,1.27
2022-12-29T00:47:06.994Z,1.30
2022-12-29T00:49:34.083Z,1.40
2022-12-29T00:52:08.869Z,1.20
2022-12-29T00:54:37.525Z,1.40
2022-12-29T00:57:05.676Z,1.15
2022-12-29T00:59:32.103Z,1.23
2022-12-29T01:01:58.743Z,1.20
2022-12-29T01:04:26.355Z,1.40
2022-12-29T01:06:53.330Z,1.17
2022-12-29T01:09:38.942Z,1.52
2022-12-29T01:12:06.746Z,1.40
2022-12-29T01:14:33.808Z,1.40
2022-12-29T01:17:00.401Z,1.20
2022-12-29T01:19:26.821Z,1.27
2022-12-29T01:21:53.566Z,1.10
2022-12-29T01:24:21.450Z,1.38
2022-12-29T01:26:48.241Z,0.95
2022-12-29T01:29:14.651Z,1.02
2022-12-29T01:31:41.288Z,1.08
2022-12-29T01:34:07.764Z,1.05
2022-12-29T01:36:34.613Z,1.05
2022-12-29T01:39:01.221Z,1.08
2022-12-29T01:41:27.630Z,0.95
2022-12-29T01:43:57.417Z,1.00
2022-12-29T01:46:31.536Z,1.15
2022-12-29T01:49:20.853Z,0.85
2022-12-29T01:51:53.587Z,1.10
2022-12-29T01:54:37.223Z,0.98
2022-12-29T01:57:07.591Z,0.88
2022-12-29T01:59:59.207Z,0.90
2022-12-29T02:02:25.999Z,1.02
2022-12-29T02:04:53.195Z,0.95
2022-12-29T02:07:22.009Z,0.73
2022-12-29T02:09:52.851Z,0.93
2022-12-29T02:12:21.310Z,0.98
2022-12-29T02:14:48.416Z,0.70
2022-12-29T02:17:36.921Z,0.70
2022-12-29T02:20:12.518Z,0.80
2022-12-29T02:23:09.347Z,0.70
2022-12-29T02:25:47.335Z,0.90
2022-12-29T02:28:22.366Z,0.70
2022-12-29T02:31:00.902Z,0.80
2022-12-29T02:33:33.353Z,0.88
2022-12-29T02:36:20.452Z,0.70
2022-12-29T02:39:49.631Z,0.60
2022-12-29T02:42:36.646Z,0.90
2022-12-29T02:45:18.982Z,0.80
2022-12-29T02:47:53.742Z,0.60
2022-12-29T02:50:24.681Z,0.70
2022-12-29T02:52:55.929Z,0.70
2022-12-29T02:55:22.335Z,0.63
2022-12-29T02:57:48.781Z,0.80
2022-12-29T03:00:17.214Z,0.73
2022-12-29T03:02:58.358Z,0.60
2022-12-29T03:05:46.458Z,0.70
2022-12-29T03:08:28.080Z,0.70
2022-12-29T03:11:28.137Z,0.60
2022-12-29T03:14:18.993Z,0.57
2022-12-29T03:16:48.154Z,0.77
2022-12-29T03:19:22.755Z,0.52
2022-12-29T03:22:13.431Z,0.57
2022-12-29T03:24:43.175Z,0.60
2022-12-29T03:27:12.128Z,0.43
2022-12-29T03:29:43.175Z,0.60
2022-12-29T03:32:10.278Z,0.50
2022-12-29T03:34:37.841Z,0.50
2022-12-29T03:37:09.390Z,0.40
2022-12-29T03:39:36.056Z,0.50
2022-12-29T03:42:04.315Z,0.40
2022-12-29T03:44:40.221Z,0.50
2022-12-29T03:47:07.589Z,0.50
2022-12-29T03:49:34.495Z,0.35
2022-12-29T03:52:00.900Z,0.50
2022-12-29T03:54:27.319Z,0.50
2022-12-29T03:56:53.699Z,0.50
2022-12-29T03:59:20.135Z,0.60
2022-12-29T04:01:47.375Z,0.60
2022-12-29T04:04:14.197Z,0.50
2022-12-29T04:06:41.205Z,0.60
2022-12-29T04:09:07.743Z,0.60
2022-12-29T04:11:34.641Z,0.50
2022-12-29T04:14:01.181Z,0.40
2022-12-29T04:16:27.656Z,0.50
2022-12-29T04:18:54.214Z,0.43
2022-12-29T04:21:20.721Z,0.52
2022-12-29T04:23:47.146Z,0.43
2022-12-29T04:26:13.764Z,0.57
2022-12-29T04:28:41.041Z,0.50
2022-12-29T04:31:07.983Z,0.60
2022-12-29T04:33:34.440Z,0.60
2022-12-29T04:36:00.944Z,0.70
2022-12-29T04:38:27.386Z,0.50
2022-12-29T04:40:53.928Z,0.50
2022-12-29T04:43:20.394Z,0.63
2022-12-29T04:45:47.750Z,0.50
2022-12-29T04:48:15.283Z,0.60
2022-12-29T04:50:42.256Z,0.50
2022-12-29T04:53:08.884Z,0.75
2022-12-29T04:55:35.539Z,0.80
2022-12-29T04:58:02.318Z,0.70
2022-12-29T05:00:28.751Z,0.80
2022-12-29T05:02:55.490Z,0.68
2022-12-29T05:05:21.970Z,0.75
2022-12-29T05:07:48.404Z,0.95
2022-12-29T05:10:14.911Z,0.70
2022-12-29T05:12:41.573Z,0.95
2022-12-29T05:15:09.131Z,1.00
2022-12-29T05:17:35.793Z,0.93
2022-12-29T05:20:02.241Z,1.20
2022-12-29T05:22:28.729Z,1.05
2022-12-29T05:24:55.166Z,0.90
2022-12-29T05:27:21.589Z,0.80
2022-12-29T05:29:47.978Z,0.88
2022-12-29T05:32:14.449Z,1.10
2022-12-29T05:34:41.269Z,0.95
2022-12-29T05:37:07.809Z,0.85
2022-12-29T05:39:34.266Z,0.75
2022-12-29T05:42:00.935Z,0.90
2022-12-29T05:44:27.339Z,0.95
2022-12-29T05:46:53.920Z,0.70
2022-12-29T05:49:20.339Z,0.70
2022-12-29T05:51:46.835Z,0.70
2022-12-29T05:54:13.268Z,0.70
2022-12-29T05:56:39.671Z,0.80
2022-12-29T05:59:06.178Z,0.80
2022-12-29T06:01:32.692Z,0.70
2022-12-29T06:03:59.609Z,0.60
2022-12-29T06:06:26.094Z,0.80
2022-12-29T06:08:52.792Z,0.60
2022-12-29T06:11:19.732Z,0.70
2022-12-29T06:13:46.187Z,0.52
2022-12-29T06:16:12.617Z,0.70
2022-12-29T06:18:39.182Z,0.65
2022-12-29T06:21:06.028Z,0.63
2022-12-29T06:23:32.548Z,0.70
2022-12-29T06:25:58.936Z,0.70
2022-12-29T06:28:25.442Z,0.90
2022-12-29T06:30:51.816Z,0.60
2022-12-29T06:33:18.247Z,0.50
2022-12-29T06:35:46.632Z,0.50
2022-12-29T06:38:13.433Z,0.50
2022-12-29T06:40:40.526Z,0.40
2022-12-29T06:43:06.924Z,0.70
2022-12-29T06:45:33.702Z,0.60
2022-12-29T06:48:00.368Z,0.50
2022-12-29T06:50:26.757Z,0.60
2022-12-29T06:52:53.123Z,0.40
2022-12-29T06:55:19.645Z,0.50
2022-12-29T06:57:46.012Z,0.40
2022-12-29T07:00:13.704Z,0.60
2022-12-29T07:02:42.340Z,0.60
2022-12-29T07:05:10.289Z,0.60
2022-12-29T07:07:36.750Z,0.73
2022-12-29T07:10:03.481Z,0.80
2022-12-29T07:12:30.060Z,1.00
2022-12-29T07:14:56.493Z,1.02
2022-12-29T07:17:22.925Z,1.25
2022-12-29T07:19:49.325Z,1.23
2022-12-29T07:22:15.723Z,1.30
2022-12-29T07:24:42.566Z,1.00
2022-12-29T07:27:09.108Z,1.00
2022-12-29T07:29:38.130Z,1.08
2022-12-29T07:32:05.138Z,1.00
2022-12-29T07:34:31.677Z,1.40
2022-12-29T07:36:58.096Z,1.30
2022-12-29T07:39:24.506Z,1.30
2022-12-29T07:41:50.917Z,1.05
2022-12-29T07:44:17.359Z,1.00
2022-12-29T07:46:55.855Z,1.00
2022-12-29T07:49:23.953Z,1.20
2022-12-29T07:51:50.440Z,1.30
2022-12-29T07:54:19.279Z,1.38
2022-12-29T07:56:46.240Z,1.52
2022-12-29T07:59:13.103Z,1.30
2022-12-29T08:01:39.968Z,1.30
2022-12-29T08:04:06.594Z,1.40
2022-12-29T08:06:33.072Z,1.70
2022-12-29T08:09:07.855Z,1.75
2022-12-29T08:11:39.641Z,1.40
2022-12-29T08:14:06.059Z,1.60
2022-12-29T08:16:33.440Z,1.02
2022-12-29T08:19:00.435Z,1.20
2022-12-29T08:21:28.396Z,1.40
2022-12-29T08:23:54.865Z,1.23
2022-12-29T08:26:21.397Z,1.30
2022-12-29T08:28:47.826Z,1.40
2022-12-29T08:31:14.561Z,1.60
2022-12-29T08:33:41.163Z,1.02
2022-12-29T08:36:07.973Z,1.10
2022-12-29T08:38:34.383Z,1.58
2022-12-29T08:41:02.035Z,1.33
2022-12-29T08:43:29.175Z,1.40
2022-12-29T08:45:55.675Z,1.33
2022-12-29T08:48:23.118Z,1.20
2022-12-29T08:50:50.703Z,1.20
2022-12-29T08:53:18.711Z,1.33
2022-12-29T08:55:58.070Z,1.02
2022-12-29T08:58:28.825Z,1.10
2022-12-29T09:00:56.916Z,1.35
2022-12-29T09:03:46.077Z,1.48
2022-12-29T09:06:11.085Z,1.27
2022-12-29T09:08:38.085Z,1.30
2022-12-29T09:11:16.197Z,1.08
2022-12-29T09:13:42.733Z,1.45
2022-12-29T09:16:09.591Z,1.20
2022-12-29T09:18:35.992Z,1.58
2022-12-29T09:21:04.510Z,1.10
2022-12-29T09:23:31.361Z,0.88
2022-12-29T09:25:57.897Z,1.10
2022-12-29T09:28:24.845Z,1.20
2022-12-29T09:30:51.883Z,1.35
2022-12-29T09:33:18.781Z,1.05
2022-12-29T09:35:46.813Z,1.50
2022-12-29T09:38:13.370Z,1.02
2022-12-29T09:40:40.381Z,0.95
2022-12-29T09:43:25.485Z,1.00
2022-12-29T09:46:00.240Z,1.50
2022-12-29T09:48:31.980Z,1.23
2022-12-29T09:51:01.759Z,1.50
2022-12-29T09:53:39.585Z,1.55
2022-12-29T09:56:06.432Z,1.73
2022-12-29T09:58:40.692Z,1.23
2022-12-29T10:01:09.311Z,1.35
2022-12-29T10:03:48.126Z,1.20
2022-12-29T10:06:26.046Z,1.17
2022-12-29T10:09:10.051Z,1.95
2022-12-29T10:11:50.758Z,1.58
2022-12-29T10:14:30.517Z,1.40
2022-12-29T10:17:34.337Z,1.48
2022-12-29T10:20:21.786Z,1.50
2022-12-29T10:22:55.679Z,1.50
2022-12-29T10:25:31.124Z,1.25
2022-12-29T10:28:01.223Z,1.40
2022-12-29T10:30:27.696Z,1.10
2022-12-29T10:33:03.671Z,1.55
2022-12-29T10:35:41.491Z,1.40
2022-12-29T10:38:26.950Z,1.45
2022-12-29T10:41:00.628Z,1.48
2022-12-29T10:43:39.064Z,1.65
2022-12-29T10:46:11.493Z,1.58
2022-12-29T10:51:06.744Z,1.50
2022-12-29T10:53:41.466Z,1.95
2022-12-29T10:56:29.092Z,1.40
2022-12-29T10:58:58.069Z,1.65
2022-12-29T11:01:30.439Z,1.70
2022-12-29T11:04:24.280Z,1.48
2022-12-29T11:06:50.807Z,1.55
2022-12-29T11:09:28.822Z,1.30
2022-12-29T11:12:31.061Z,1.67
2022-12-29T11:15:06.703Z,1.48
2022-12-29T11:17:46.763Z,1.25
2022-12-29T11:20:38.699Z,1.40
2022-12-29T11:23:22.043Z,1.30
2022-12-29T11:26:12.220Z,1.40
2022-12-29T11:28:39.342Z,1.73
2022-12-29T11:31:07.426Z,1.38
2022-12-29T11:33:35.890Z,1.60
2022-12-29T11:36:16.110Z,1.90
2022-12-29T11:38:48.146Z,1.77
2022-12-29T11:41:23.081Z,1.42
2022-12-29T11:43:49.878Z,1.50
2022-12-29T11:46:21.357Z,1.67
2022-12-29T11:48:49.031Z,1.38
2022-12-29T11:51:25.463Z,1.52
2022-12-29T11:53:59.810Z,1.42
2022-12-29T11:56:52.838Z,1.15
2022-12-29T11:59:39.977Z,1.40
2022-12-29T12:02:43.690Z,1.58
2022-12-29T12:05:33.154Z,1.20
2022-12-29T12:08:25.652Z,2.10
2022-12-29T12:11:09.437Z,1.30
2022-12-29T12:13:40.390Z,1.13
2022-12-29T12:16:14.186Z,1.55
2022-12-29T12:18:45.969Z,1.60
2022-12-29T12:21:31.543Z,1.10
2022-12-29T12:24:19.648Z,1.35
2022-12-29T12:27:00.907Z,1.63
2022-12-29T12:29:36.562Z,1.30
2022-12-29T12:32:11.959Z,1.65
2022-12-29T12:34:40.621Z,1.35
2022-12-29T12:37:35.631Z,1.20
2022-12-29T12:40:14.085Z,1.40
2022-12-29T12:42:43.371Z,1.48
2022-12-29T12:45:46.164Z,1.38
2022-12-29T12:48:49.785Z,1.48
2022-12-29T12:51:37.628Z,2.40
2022-12-29T12:54:39.211Z,1.60
2022-12-29T12:57:15.005Z,2.15
2022-12-29T12:59:50.308Z,1.67
2022-12-29T13:02:35.093Z,1.45
2022-12-29T13:05:26.577Z,1.60
2022-12-29T13:08:21.671Z,1.77
2022-12-29T13:11:11.169Z,1.60
2022-12-29T13:13:58.656Z,1.80
2022-12-29T13:16:55.990Z,1.77
2022-12-29T13:19:42.333Z,1.65
2022-12-29T13:22:25.925Z,1.60
2022-12-29T13:24:58.029Z,1.55
2022-12-29T13:27:37.740Z,1.40
2022-12-29T13:30:09.109Z,1.70
2022-12-29T13:32:35.655Z,1.77
2022-12-29T13:35:23.356Z,1.98
2022-12-29T13:38:00.489Z,1.65
2022-12-29T13:40:29.852Z,1.83
2022-12-29T13:42:57.078Z,1.35
2022-12-29T13:45:26.119Z,1.45
2022-12-29T13:47:57.420Z,1.45
2022-12-29T13:50:27.284Z,1.90
2022-12-29T13:53:18.619Z,1.77
2022-12-29T13:55:56.760Z,1.90
2022-12-29T13:58:36.083Z,2.17
2022-12-29T14:01:16.117Z,1.63
2022-12-29T14:03:55.636Z,1.90
2022-12-29T14:06:35.612Z,2.20
2022-12-29T14:09:05.562Z,1.40
2022-12-29T14:11:40.678Z,1.63
2022-12-29T14:14:22.887Z,1.58
2022-12-29T14:16:49.674Z,1.67
2022-12-29T14:19:19.056Z,1.60
2022-12-29T14:22:00.173Z,1.35
2022-12-29T14:24:35.630Z,1.70
2022-12-29T14:27:10.877Z,1.60
2022-12-29T14:29:40.201Z,1.58
2022-12-29T14:32:21.996Z,1.88
2022-12-29T14:34:52.492Z,2.50
2022-12-29T14:37:32.905Z,1.75
2022-12-29T14:40:09.576Z,1.92
2022-12-29T14:42:36.287Z,1.48
2022-12-29T14:45:08.609Z,1.73
2022-12-29T14:47:42.078Z,1.73
2022-12-29T14:50:11.418Z,2.20
2022-12-29T14:53:02.136Z,1.85
2022-12-29T14:55:39.783Z,1.80
2022-12-29T14:58:13.920Z,1.77
2022-12-29T15:00:40.868Z,2.15
2022-12-29T15:03:13.997Z,1.90
2022-12-29T15:05:47.258Z,1.70
2022-12-29T15:08:17.835Z,2.05
2022-12-29T15:10:55.080Z,1.80
2022-12-29T15:13:26.103Z,2.10
2022-12-29T15:15:53.863Z,2.30
2022-12-29T15:18:28.164Z,1.40
2022-12-29T15:20:58.061Z,2.45
2022-12-29T15:23:24.683Z,2.63
2022-12-29T15:25:58.161Z,1.98
2022-12-29T15:28:25.069Z,2.22
2022-12-29T15:30:56.530Z,2.60
2022-12-29T15:33:25.296Z,1.95
2022-12-29T15:35:53.876Z,2.75
2022-12-29T15:38:34.571Z,2.40
2022-12-29T15:41:07.266Z,2.17
2022-12-29T15:43:44.873Z,2.22
2022-12-29T15:46:13.595Z,2.20
2022-12-29T15:48:40.560Z,2.30
2022-12-29T15:51:20.460Z,2.00
2022-12-29T15:53:48.653Z,2.15
2022-12-29T15:56:15.190Z,1.80
2022-12-29T15:58:48.517Z,3.10
2022-12-29T16:01:35.294Z,2.33
2022-12-29T16:04:04.400Z,1.48
2022-12-29T16:06:34.632Z,2.30
2022-12-29T16:09:17.806Z,1.83
2022-12-29T16:12:08.904Z,1.80
2022-12-29T16:14:58.693Z,2.50
2022-12-29T16:17:30.459Z,1.63
2022-12-29T16:20:15.361Z,2.00
2022-12-29T16:22:44.776Z,1.90
2022-12-29T16:25:20.362Z,2.05
2022-12-29T16:27:46.732Z,1.90
2022-12-29T16:30:33.166Z,2.17
2022-12-29T16:33:02.216Z,2.22
2022-12-29T16:35:43.922Z,2.83
2022-12-29T16:38:16.374Z,2.47
2022-12-29T16:43:22.898Z,3.88
2022-12-29T16:45:49.276Z,2.78
2022-12-29T16:48:21.203Z,2.50
2022-12-29T16:50:48.630Z,2.33
2022-12-29T16:53:25.852Z,2.50
2022-12-29T16:55:56.770Z,2.45
2022-12-29T16:58:27.947Z,2.00
2022-12-29T17:01:00.831Z,2.10
2022-12-29T17:03:36.426Z,2.40
2022-12-29T17:06:03.507Z,2.63
2022-12-29T17:08:29.905Z,2.10
2022-12-29T17:11:16.207Z,2.28
2022-12-29T17:13:42.600Z,2.60
2022-12-29T17:16:11.301Z,2.53
2022-12-29T17:18:37.847Z,1.92
2022-12-29T17:21:04.309Z,1.77
2022-12-29T17:23:32.409Z,2.05
2022-12-29T17:25:58.890Z,1.70
2022-12-29T17:28:27.596Z,1.60
2022-12-29T17:30:57.798Z,2.05
2022-12-29T17:33:24.173Z,3.55
2022-12-29T17:35:55.156Z,2.63
2022-12-29T17:38:26.429Z,1.70
2022-12-29T17:40:52.888Z,1.80
2022-12-29T17:43:20.005Z,2.00
2022-12-29T17:45:49.772Z,1.50
2022-12-29T17:48:17.958Z,2.00
2022-12-29T17:50:44.691Z,2.17
2022-12-29T17:53:16.195Z,2.50
2022-12-29T17:55:43.046Z,2.58
2022-12-29T17:58:19.925Z,2.65
2022-12-29T18:00:48.090Z,2.50
2022-12-29T18:03:20.422Z,2.85
2022-12-29T18:08:16.048Z,3.00
2022-12-29T18:10:42.758Z,3.17
2022-12-29T18:13:20.393Z,2.63
2022-12-29T18:15:47.222Z,3.15
2022-12-29T18:18:15.452Z,3.05
2022-12-29T18:20:43.177Z,3.72
2022-12-29T18:23:25.963Z,5.40
2022-12-29T18:28:24.875Z,3.17
2022-12-29T18:30:51.539Z,3.10
2022-12-29T18:33:23.335Z,2.58
2022-12-29T18:35:59.825Z,2.90
2022-12-29T18:38:26.681Z,2.25
2022-12-29T18:40:53.419Z,2.25
2022-12-29T18:43:20.154Z,1.85
2022-12-29T18:45:46.887Z,2.17
2022-12-29T18:48:14.175Z,2.60
2022-12-29T18:50:40.647Z,1.95
2022-12-29T18:53:07.214Z,2.20
2022-12-29T18:55:33.662Z,1.40
2022-12-29T18:58:00.087Z,1.80
2022-12-29T19:00:26.584Z,2.20
2022-12-29T19:02:53.289Z,1.92
2022-12-29T19:05:21.154Z,1.48
2022-12-29T19:07:47.592Z,1.70
2022-12-29T19:10:14.025Z,1.80
2022-12-29T19:12:40.409Z,1.95
2022-12-29T19:15:07.663Z,1.60
2022-12-29T19:17:34.190Z,1.48
2022-12-29T19:20:04.172Z,1.48
2022-12-29T19:22:30.604Z,1.48
2022-12-29T19:25:00.053Z,1.10
2022-12-29T19:27:26.773Z,1.38
2022-12-29T19:29:53.139Z,1.30
2022-12-29T19:32:19.523Z,1.20
2022-12-29T19:34:48.658Z,1.15
2022-12-29T19:37:15.159Z,1.17
2022-12-29T19:39:41.586Z,1.52
2022-12-29T19:42:07.992Z,1.00
2022-12-29T19:44:34.374Z,1.88
2022-12-29T19:47:00.812Z,1.27
2022-12-29T19:49:27.238Z,1.33
2022-12-29T19:51:53.620Z,1.45
2022-12-29T19:54:20.007Z,1.75
2022-12-29T19:56:46.422Z,2.47
2022-12-29T19:59:13.218Z,2.40
2022-12-29T20:01:39.735Z,2.42
2022-12-29T20:04:06.276Z,1.75
2022-12-29T20:06:32.705Z,1.98
2022-12-29T20:09:01.675Z,1.90
2022-12-29T20:11:28.064Z,2.10
2022-12-29T20:13:54.632Z,2.38
2022-12-29T20:16:21.098Z,2.30
2022-12-29T20:18:48.103Z,2.30
2022-12-29T20:21:22.630Z,2.03
2022-12-29T20:23:51.039Z,2.20
2022-12-29T20:26:23.109Z,2.25
2022-12-29T20:28:50.778Z,2.80
2022-12-29T20:31:25.708Z,1.90
2022-12-29T20:33:52.143Z,2.40
2022-12-29T20:36:21.431Z,2.40
2022-12-29T20:38:49.358Z,2.22
2022-12-29T20:41:16.536Z,2.40
2022-12-29T20:43:43.342Z,2.90
2022-12-29T20:46:10.530Z,2.50
2022-12-29T20:48:37.332Z,2.50
2022-12-29T20:51:04.089Z,2.40
2022-12-29T20:53:32.324Z,2.65
2022-12-29T20:56:08.452Z,2.85
2022-12-29T20:58:47.158Z,2.40
2022-12-29T21:01:24.186Z,2.50
2022-12-29T21:03:50.688Z,3.47
2022-12-29T21:06:17.127Z,3.33
2022-12-29T21:08:43.677Z,2.80
2022-12-29T21:11:10.184Z,3.25
2022-12-29T21:13:36.661Z,2.80
2022-12-29T21:16:06.909Z,2.63
2022-12-29T21:18:33.499Z,2.72
2022-12-29T21:21:14.953Z,2.78
2022-12-29T21:23:41.568Z,3.50
2022-12-29T21:26:09.290Z,3.00
2022-12-29T21:28:38.200Z,3.40
2022-12-29T21:31:09.501Z,3.42
2022-12-29T21:33:38.008Z,3.40
2022-12-29T21:36:06.180Z,4.68
2022-12-29T21:38:35.698Z,3.22
2022-12-29T21:41:10.539Z,3.78
2022-12-29T21:43:37.344Z,3.10
2022-12-29T21:46:05.114Z,3.08
2022-12-29T21:48:32.032Z,3.20
2022-12-29T21:51:37.113Z,3.30
2022-12-29T21:54:22.140Z,3.70
2022-12-29T21:56:48.736Z,3.22
2022-12-29T21:59:34.840Z,4.00
2022-12-29T22:02:21.336Z,3.03
2022-12-29T22:05:06.808Z,3.65
2022-12-29T22:07:51.959Z,3.63
2022-12-29T22:10:37.038Z,4.43
2022-12-29T22:13:03.528Z,3.65
2022-12-29T22:15:35.551Z,4.40
2022-12-29T22:18:02.610Z,3.88
2022-12-29T22:20:31.567Z,4.93
2022-12-29T22:22:57.948Z,5.10
2022-12-29T22:25:24.417Z,5.40
2022-12-29T22:27:55.763Z,3.90
2022-12-29T22:30:26.411Z,3.80
2022-12-29T22:32:52.851Z,3.97
2022-12-29T22:35:19.253Z,4.35
2022-12-29T22:37:45.722Z,3.90
2022-12-29T22:40:12.522Z,3.45
2022-12-29T22:42:39.073Z,4.10
2022-12-29T22:45:06.627Z,3.83
2022-12-29T22:47:33.043Z,3.83
2022-12-29T22:49:59.406Z,3.95
2022-12-29T22:52:25.876Z,3.97
2022-12-29T22:54:52.273Z,3.47
2022-12-29T22:57:18.744Z,3.38
2022-12-29T22:59:45.118Z,3.10
2022-12-29T23:02:11.930Z,3.38
2022-12-29T23:07:25.208Z,3.63
2022-12-29T23:09:51.640Z,3.50
2022-12-29T23:12:18.035Z,3.28
2022-12-29T23:14:44.390Z,4.10
2022-12-29T23:17:11.298Z,3.83
2022-12-29T23:19:37.687Z,2.90
2022-12-29T23:22:04.195Z,3.65
2022-12-29T23:24:30.660Z,3.22
2022-12-29T23:26:57.072Z,3.88
2022-12-29T23:29:24.035Z,3.47
2022-12-29T23:31:50.513Z,3.38
2022-12-29T23:34:17.321Z,3.38
2022-12-29T23:36:43.902Z,3.20
2022-12-29T23:39:17.483Z,2.83
2022-12-29T23:41:43.863Z,3.22
2022-12-29T23:44:10.227Z,3.30
2022-12-29T23:46:36.899Z,3.22
2022-12-29T23:49:03.680Z,3.25
2022-12-29T23:51:30.085Z,3.15
2022-12-29T23:53:56.500Z,3.25
2022-12-29T23:56:23.539Z,3.65
2022-12-29T23:58:50.331Z,3.45
